createdAt,value
2022-09-28T00:00:20.042Z,1.60
2022-09-28T00:02:48.410Z,1.75
2022-09-28T00:05:15.975Z,1.70
2022-09-28T00:07:43.535Z,1.98
2022-09-28T00:10:11.183Z,1.58
2022-09-28T00:12:39.234Z,1.85
2022-09-28T00:15:08.041Z,1.90
2022-09-28T00:17:36.475Z,2.40
2022-09-28T00:20:05.755Z,1.83
2022-09-28T00:22:33.073Z,2.50
2022-09-28T00:25:00.420Z,2.58
2022-09-28T00:27:27.824Z,2.72
2022-09-28T00:29:55.950Z,2.58
2022-09-28T00:32:24.914Z,2.58
2022-09-28T00:34:53.047Z,2.60
2022-09-28T00:37:20.727Z,3.00
2022-09-28T00:39:49.293Z,2.67
2022-09-28T00:42:23.510Z,2.92
2022-09-28T00:44:54.748Z,3.10
2022-09-28T00:53:13.748Z,2.55
2022-09-28T00:55:54.858Z,3.10
2022-09-28T00:58:33.512Z,2.75
2022-09-28T01:01:02.377Z,2.90
2022-09-28T01:03:30.470Z,2.92
2022-09-28T01:06:03.183Z,2.70
2022-09-28T01:08:34.374Z,2.72
2022-09-28T01:11:02.336Z,2.67
2022-09-28T01:13:33.085Z,2.20
2022-09-28T01:16:55.031Z,2.03
2022-09-28T01:20:27.290Z,1.63
2022-09-28T01:29:45.795Z,2.00
2022-09-28T01:37:52.425Z,1.50
2022-09-28T01:40:26.541Z,1.55
2022-09-28T01:43:07.076Z,2.15
2022-09-28T01:45:49.444Z,1.80
2022-09-28T01:48:31.456Z,1.83
2022-09-28T01:51:08.461Z,2.05
2022-09-28T01:53:44.961Z,2.13
2022-09-28T01:56:45.226Z,2.10
2022-09-28T01:59:20.561Z,2.10
2022-09-28T02:04:35.274Z,1.83
2022-09-28T02:07:17.493Z,1.50
2022-09-28T02:09:56.110Z,1.73
2022-09-28T02:15:19.167Z,1.70
2022-09-28T02:17:47.006Z,1.95
2022-09-28T02:20:17.864Z,1.75
2022-09-28T02:22:55.984Z,1.70
2022-09-28T02:28:14.227Z,2.10
2022-09-28T02:30:45.132Z,2.30
2022-09-28T02:33:40.320Z,1.98
2022-09-28T02:36:08.396Z,1.65
2022-09-28T02:38:39.550Z,1.85
2022-09-28T03:07:30.657Z,1.23
2022-09-28T03:10:31.132Z,1.55
2022-09-28T03:12:59.707Z,1.90
2022-09-28T03:15:33.681Z,1.80
2022-09-28T03:18:02.161Z,1.85
2022-09-28T03:20:32.420Z,1.40
2022-09-28T03:23:23.326Z,1.67
2022-09-28T03:25:49.297Z,1.50
2022-09-28T03:28:17.245Z,1.63
2022-09-28T03:30:45.048Z,1.83
2022-09-28T03:33:12.588Z,1.50
2022-09-28T03:35:40.261Z,1.70
2022-09-28T03:38:08.225Z,1.75
2022-09-28T03:40:38.933Z,2.03
2022-09-28T03:43:06.822Z,1.65
2022-09-28T03:45:34.603Z,1.60
2022-09-28T03:48:02.360Z,1.60
2022-09-28T03:50:29.995Z,1.73
2022-09-28T03:53:03.996Z,1.80
2022-09-28T03:55:32.022Z,1.30
2022-09-28T03:58:00.531Z,1.40
2022-09-28T04:00:28.672Z,1.60
2022-09-28T04:02:56.869Z,1.80
2022-09-28T04:05:24.778Z,1.88
2022-09-28T04:07:57.919Z,1.38
2022-09-28T04:10:27.823Z,1.60
2022-09-28T04:12:57.991Z,1.60
2022-09-28T04:15:26.663Z,1.80
2022-09-28T04:17:56.377Z,1.30
2022-09-28T04:20:46.151Z,1.70
2022-09-28T04:23:15.998Z,1.60
2022-09-28T04:25:47.956Z,1.60
2022-09-28T04:28:36.474Z,1.58
2022-09-28T04:31:10.988Z,1.25
2022-09-28T04:33:39.935Z,1.10
2022-09-28T04:36:12.007Z,1.73
2022-09-28T04:38:52.765Z,1.13
2022-09-28T04:41:23.706Z,1.20
2022-09-28T04:43:51.877Z,1.40
2022-09-28T04:46:23.858Z,1.30
2022-09-28T04:49:12.265Z,1.30
2022-09-28T04:51:58.802Z,1.27
2022-09-28T04:54:28.214Z,1.88
2022-09-28T04:56:59.437Z,2.40
2022-09-28T04:59:27.780Z,1.23
2022-09-28T05:01:55.959Z,1.42
2022-09-28T05:04:44.666Z,1.10
2022-09-28T05:07:30.178Z,1.20
2022-09-28T05:10:23.409Z,1.40
2022-09-28T05:13:02.844Z,1.30
2022-09-28T05:15:31.878Z,1.55
2022-09-28T05:18:00.043Z,1.40
2022-09-28T05:20:48.349Z,1.40
2022-09-28T05:23:16.782Z,1.50
2022-09-28T05:25:46.841Z,1.33
2022-09-28T05:28:31.196Z,1.40
2022-09-28T05:31:24.331Z,4.22
2022-09-28T05:37:58.541Z,2.15
2022-09-28T05:40:49.701Z,1.80
2022-09-28T05:43:18.554Z,2.00
2022-09-28T05:45:55.533Z,1.67
2022-09-28T05:48:25.157Z,1.25
2022-09-28T05:50:59.067Z,1.77
2022-09-28T05:53:28.080Z,1.90
2022-09-28T05:56:05.477Z,1.88
2022-09-28T05:58:38.803Z,2.60
2022-09-28T06:01:11.004Z,2.17
2022-09-28T06:03:38.776Z,2.45
2022-09-28T06:06:07.477Z,2.38
2022-09-28T06:08:35.130Z,2.28
2022-09-28T06:11:49.470Z,2.33
2022-09-28T06:14:24.272Z,2.20
2022-09-28T06:16:52.175Z,3.63
2022-09-28T06:19:19.718Z,2.08
2022-09-28T06:22:07.017Z,2.15
2022-09-28T06:24:43.055Z,1.60
2022-09-28T06:27:10.788Z,1.90
2022-09-28T06:29:38.490Z,1.70
2022-09-28T06:32:07.308Z,6.43
2022-09-28T06:34:36.066Z,2.75
2022-09-28T06:37:04.625Z,2.38
2022-09-28T06:39:32.776Z,1.92
2022-09-28T06:42:03.222Z,2.00
2022-09-28T06:44:50.509Z,2.75
2022-09-28T06:47:38.505Z,8.65
2022-09-28T06:50:15.907Z,5.15
2022-09-28T06:53:06.849Z,8.70
2022-09-28T06:55:56.114Z,7.88
2022-09-28T06:58:24.985Z,3.30
2022-09-28T07:00:52.635Z,3.05
2022-09-28T07:03:22.832Z,2.60
2022-09-28T07:06:02.047Z,2.25
2022-09-28T07:08:39.422Z,3.30
2022-09-28T07:11:27.441Z,2.80
2022-09-28T07:14:26.590Z,4.20
2022-09-28T07:17:12.158Z,3.97
2022-09-28T07:19:41.522Z,3.40
2022-09-28T07:22:09.209Z,3.63
2022-09-28T07:24:36.991Z,3.85
2022-09-28T07:27:28.716Z,8.15
2022-09-28T07:30:12.399Z,5.18
2022-09-28T07:32:57.598Z,7.60
2022-09-28T07:41:16.940Z,3.80
2022-09-28T07:43:49.828Z,4.43
2022-09-28T07:46:17.788Z,3.38
2022-09-28T07:51:33.602Z,3.25
2022-09-28T07:56:54.927Z,7.32
2022-09-28T08:10:05.104Z,6.03
2022-09-28T08:23:24.577Z,4.45
2022-09-28T08:25:55.527Z,3.85
2022-09-28T08:28:25.875Z,10.43
2022-09-28T08:31:10.586Z,3.25
2022-09-28T08:36:35.432Z,2.58
2022-09-28T08:39:13.960Z,2.42
2022-09-28T08:42:41.331Z,2.28
2022-09-28T08:45:34.924Z,2.50
2022-09-28T08:49:13.330Z,2.40
2022-09-28T08:55:19.341Z,2.30
2022-09-28T09:00:48.636Z,2.00
2022-09-28T09:03:34.116Z,1.55
2022-09-28T09:21:02.486Z,1.92
2022-09-28T09:54:46.764Z,1.50
2022-09-28T10:00:45.843Z,1.70
2022-09-28T10:03:33.169Z,1.75
2022-09-28T10:06:25.091Z,1.38
2022-09-28T10:11:46.825Z,1.48
2022-09-28T10:14:22.448Z,1.52
2022-09-28T10:16:58.970Z,1.42
2022-09-28T10:19:49.825Z,1.25
2022-09-28T10:22:37.479Z,1.55
2022-09-28T10:25:13.917Z,1.58
2022-09-28T10:27:46.279Z,1.90
2022-09-28T10:30:23.242Z,8.77
2022-09-28T10:32:59.128Z,1.73
2022-09-28T10:35:42.950Z,2.80
2022-09-28T10:38:19.499Z,1.60
2022-09-28T10:40:55.890Z,1.58
2022-09-28T10:43:39.559Z,2.35
2022-09-28T10:46:21.694Z,1.90
2022-09-28T10:49:07.354Z,4.32
2022-09-28T10:54:28.369Z,1.52
2022-09-28T10:56:59.582Z,2.30
2022-09-28T10:59:42.244Z,1.85
2022-09-28T11:05:05.040Z,2.67
2022-09-28T11:07:48.055Z,1.60
2022-09-28T11:10:27.706Z,1.25
2022-09-28T11:13:01.212Z,1.20
2022-09-28T11:15:33.602Z,3.53
2022-09-28T11:18:32.308Z,1.17
2022-09-28T11:21:32.109Z,3.85
2022-09-28T11:24:19.876Z,3.35
2022-09-28T11:26:56.555Z,1.45
2022-09-28T11:29:53.708Z,2.70
2022-09-28T11:32:44.991Z,3.90
2022-09-28T11:49:53.799Z,3.83
2022-09-28T11:55:39.162Z,1.50
2022-09-28T12:01:03.788Z,7.03
2022-09-28T12:03:57.066Z,2.25
2022-09-28T12:06:46.039Z,1.63
2022-09-28T12:09:30.564Z,5.63
2022-09-28T12:12:18.782Z,6.55
2022-09-28T12:14:48.349Z,3.00
2022-09-28T12:17:35.569Z,1.77
2022-09-28T12:25:47.452Z,1.48
2022-09-28T12:28:39.757Z,8.73
2022-09-28T12:31:45.683Z,8.65
2022-09-28T12:34:13.225Z,6.65
2022-09-28T13:02:44.156Z,14.00
2022-09-28T13:06:11.389Z,6.95
2022-09-28T13:28:34.756Z,1.38
2022-09-28T13:31:04.682Z,1.33
2022-09-28T13:33:39.670Z,2.33
2022-09-28T13:39:47.017Z,3.25
2022-09-28T13:45:48.032Z,2.17
2022-09-28T13:48:37.168Z,1.58
2022-09-28T13:54:41.788Z,1.20
2022-09-28T14:05:48.343Z,1.00
2022-09-28T14:08:34.961Z,0.70
2022-09-28T14:16:43.541Z,0.73
2022-09-28T14:19:26.952Z,0.90
2022-09-28T14:28:41.342Z,0.82
2022-09-28T14:31:24.083Z,1.00
2022-09-28T14:34:01.200Z,1.00
2022-09-28T14:37:02.062Z,0.75
2022-09-28T14:39:55.209Z,1.45
2022-09-28T14:42:25.745Z,0.90
2022-09-28T14:48:15.209Z,0.80
2022-09-28T14:50:42.736Z,0.75
2022-09-28T14:53:20.789Z,2.72
2022-09-28T14:55:56.914Z,1.83
2022-09-28T14:58:29.858Z,1.65
2022-09-28T15:01:07.773Z,1.02
2022-09-28T15:03:40.600Z,1.77
2022-09-28T15:06:16.241Z,1.63
2022-09-28T15:08:43.715Z,0.95
2022-09-28T15:11:20.597Z,1.30
2022-09-28T15:13:48.162Z,1.75
2022-09-28T15:16:17.947Z,1.10
2022-09-28T15:21:32.823Z,1.13
2022-09-28T15:24:00.400Z,1.25
2022-09-28T15:26:34.427Z,1.10
2022-09-28T15:29:03.488Z,1.33
2022-09-28T15:31:36.171Z,1.08
2022-09-28T15:34:23.449Z,1.00
2022-09-28T15:36:50.893Z,1.10
2022-09-28T15:39:32.024Z,0.95
2022-09-28T15:42:02.231Z,1.23
2022-09-28T15:44:35.218Z,1.00
2022-09-28T15:50:27.126Z,1.10
2022-09-28T15:53:04.166Z,1.08
2022-09-28T15:55:42.775Z,0.90
2022-09-28T16:01:30.901Z,1.20
2022-09-28T16:03:59.709Z,1.05
2022-09-28T16:06:27.317Z,1.08
2022-09-28T16:08:54.812Z,1.20
2022-09-28T16:11:36.460Z,0.90
2022-09-28T16:14:19.850Z,1.23
2022-09-28T16:16:52.159Z,1.23
2022-09-28T16:19:30.192Z,1.70
2022-09-28T16:22:02.730Z,1.40
2022-09-28T16:24:36.571Z,1.30
2022-09-28T16:27:27.092Z,1.25
2022-09-28T16:33:32.477Z,1.42
2022-09-28T16:36:03.410Z,1.25
2022-09-28T16:38:31.842Z,1.27
2022-09-28T16:41:02.839Z,1.40
2022-09-28T16:43:34.985Z,1.23
2022-09-28T16:46:15.984Z,1.45
2022-09-28T16:48:49.580Z,1.50
2022-09-28T16:51:22.062Z,1.92
2022-09-28T16:54:09.669Z,1.45
2022-09-28T16:56:37.546Z,1.75
2022-09-28T16:59:05.074Z,1.65
2022-09-28T17:01:32.907Z,1.40
2022-09-28T17:04:00.433Z,1.75
2022-09-28T17:06:28.172Z,1.70
2022-09-28T17:08:56.654Z,1.60
2022-09-28T17:11:25.224Z,1.70
2022-09-28T17:13:58.984Z,2.30
2022-09-28T17:17:02.279Z,1.95
2022-09-28T17:19:25.725Z,1.75
2022-09-28T17:21:54.422Z,1.90
2022-09-28T17:24:22.375Z,2.00
2022-09-28T17:26:52.440Z,1.90
2022-09-28T17:29:20.162Z,2.05
2022-09-28T17:31:48.457Z,1.73
2022-09-28T17:34:19.954Z,1.85
2022-09-28T17:36:48.511Z,1.80
2022-09-28T17:39:20.133Z,2.33
2022-09-28T17:41:48.829Z,2.53
2022-09-28T17:44:17.457Z,2.00
2022-09-28T17:46:51.210Z,2.88
2022-09-28T17:49:34.700Z,4.13
2022-09-28T17:52:29.968Z,3.20
2022-09-28T17:55:03.752Z,6.78
2022-09-28T18:00:40.810Z,3.03
2022-09-28T18:03:25.797Z,4.68
2022-09-28T18:06:18.214Z,5.47
2022-09-28T18:08:51.292Z,5.25
2022-09-28T18:11:19.536Z,5.35
2022-09-28T18:14:14.002Z,4.13
2022-09-28T18:17:14.013Z,4.63
2022-09-28T18:19:45.762Z,3.65
2022-09-28T18:22:23.287Z,3.80
2022-09-28T18:24:56.920Z,4.38
2022-09-28T18:27:36.415Z,7.50
2022-09-28T18:30:06.830Z,6.97
2022-09-28T18:32:37.045Z,3.80
2022-09-28T18:35:08.805Z,4.45
2022-09-28T18:38:12.308Z,4.28
2022-09-28T18:40:48.875Z,3.70
2022-09-28T18:43:32.113Z,4.00
2022-09-28T18:46:40.250Z,3.35
2022-09-28T18:49:23.880Z,2.90
2022-09-28T18:52:04.073Z,3.60
2022-09-28T18:55:04.246Z,3.40
2022-09-28T18:57:46.584Z,3.80
2022-09-28T19:05:21.599Z,4.25
2022-09-28T19:07:49.864Z,4.90
2022-09-28T19:10:18.686Z,4.90
2022-09-28T19:12:47.117Z,5.20
2022-09-28T19:15:32.514Z,5.75
2022-09-28T19:18:01.095Z,5.18
2022-09-28T19:20:30.304Z,4.45
2022-09-28T19:23:18.322Z,4.38
2022-09-28T19:26:15.280Z,4.82
2022-09-28T19:29:33.656Z,4.80
2022-09-28T19:37:00.189Z,4.13
2022-09-28T19:40:09.526Z,4.78
2022-09-28T19:42:38.952Z,5.38
2022-09-28T19:45:10.843Z,5.22
2022-09-28T19:47:39.185Z,5.25
2022-09-28T19:50:07.864Z,6.22
2022-09-28T19:52:36.236Z,5.25
2022-09-28T19:55:04.719Z,6.45
2022-09-28T19:57:36.215Z,5.15
2022-09-28T20:00:06.543Z,5.68
2022-09-28T20:02:38.292Z,6.10
2022-09-28T20:05:09.238Z,6.43
2022-09-28T20:07:39.543Z,6.38
2022-09-28T20:10:08.097Z,6.80
2022-09-28T20:12:36.420Z,5.38
2022-09-28T20:15:07.107Z,5.50
2022-09-28T20:17:37.331Z,7.85
2022-09-28T20:20:07.613Z,7.10
2022-09-28T20:22:37.438Z,6.72
2022-09-28T20:27:48.186Z,6.40
2022-09-28T20:30:16.977Z,6.47
2022-09-28T20:32:49.754Z,6.70
2022-09-28T20:35:30.381Z,6.72
2022-09-28T20:38:08.219Z,6.20
2022-09-28T20:40:38.251Z,6.47
2022-09-28T20:43:09.840Z,6.63
2022-09-28T20:45:39.501Z,6.57
2022-09-28T20:48:08.015Z,5.65
2022-09-28T20:50:38.975Z,5.80
2022-09-28T20:53:07.406Z,5.57
2022-09-28T20:55:35.698Z,5.95
2022-09-28T20:58:05.045Z,5.13
2022-09-28T21:00:33.330Z,5.47
2022-09-28T21:03:01.661Z,4.85
2022-09-28T21:05:32.430Z,5.35
2022-09-28T21:08:00.412Z,4.97
2022-09-28T21:10:30.504Z,5.00
2022-09-28T21:13:01.038Z,5.05
2022-09-28T21:15:29.247Z,5.43
2022-09-28T21:17:57.465Z,5.03
2022-09-28T21:20:26.163Z,5.57
2022-09-28T21:22:54.307Z,4.75
2022-09-28T21:25:22.852Z,4.60
2022-09-28T21:27:53.942Z,4.60
2022-09-28T21:30:29.379Z,4.18
2022-09-28T21:32:58.209Z,4.38
2022-09-28T21:35:30.226Z,5.07
2022-09-28T21:37:58.615Z,5.18
2022-09-28T21:40:27.411Z,4.47
2022-09-28T21:42:55.130Z,4.78
2022-09-28T21:45:25.616Z,4.80
2022-09-28T21:47:58.837Z,5.22
2022-09-28T21:50:32.296Z,5.47
2022-09-28T21:53:03.387Z,4.88
2022-09-28T21:55:34.159Z,6.05
2022-09-28T21:58:05.742Z,5.80
2022-09-28T22:05:42.138Z,5.20
2022-09-28T22:09:09.481Z,5.40
2022-09-28T22:12:38.974Z,5.90
2022-09-28T22:19:00.063Z,5.57
2022-09-28T22:22:14.703Z,4.95
2022-09-28T22:25:52.290Z,5.57
2022-09-28T22:32:57.295Z,4.90
2022-09-28T22:35:56.430Z,5.20
2022-09-28T22:38:59.928Z,5.03
2022-09-28T22:41:53.871Z,5.38
2022-09-28T22:48:08.161Z,5.10
2022-09-28T22:50:59.981Z,5.47
2022-09-28T22:53:42.746Z,5.15
2022-09-28T22:56:46.436Z,5.53
2022-09-28T22:59:44.306Z,5.07
2022-09-28T23:02:41.995Z,5.93
2022-09-28T23:09:14.270Z,6.03
2022-09-28T23:12:42.408Z,5.45
2022-09-28T23:18:58.060Z,6.40
2022-09-28T23:22:41.526Z,5.68
2022-09-28T23:25:34.751Z,6.47
2022-09-28T23:28:18.961Z,7.10
2022-09-28T23:31:57.051Z,6.15
2022-09-28T23:34:41.631Z,5.82
2022-09-28T23:40:53.724Z,5.97
2022-09-28T23:46:56.505Z,5.75
2022-09-28T23:49:59.656Z,6.05
2022-09-28T23:52:54.954Z,5.68
2022-09-28T23:56:06.652Z,6.05
